Time;durP1;ratioP1;P1;durP2;ratioP2;P2;SDS_P1;SDS_P2;PMS_P1;PMS_P2;Temp;Humidity;BMP_temperature;BMP_pressure;BME280_temperature;BME280_humidity;BME280_pressure;Samples;Min_cycle;Max_cycle;Signal;HPM_P1;HPM_P2
2021/06/02 00:01:47;;;;;;;3.33;1.63;;;;;;;19.21;51.09;97879.25;5108548;28;20196;-72
2021/06/02 00:04:16;;;;;;;2.23;1.60;;;;;;;19.50;49.76;97877.09;5111240;28;20630;-72
2021/06/02 00:06:43;;;;;;;2.00;1.50;;;;;;;19.53;49.79;97871.97;5105243;28;20253;-72
2021/06/02 00:09:13;;;;;;;3.57;1.90;;;;;;;19.62;49.07;97874.97;5111884;28;20203;-72
2021/06/02 00:11:41;;;;;;;2.03;1.60;;;;;;;19.67;49.50;97872.31;5111750;28;20215;-72
2021/06/02 00:14:09;;;;;;;2.10;1.70;;;;;;;19.71;48.99;97876.13;5112455;28;20191;-72
2021/06/02 00:16:36;;;;;;;2.60;1.90;;;;;;;19.57;49.56;97869.53;5115938;28;20200;-72
2021/06/02 00:19:03;;;;;;;1.83;1.63;;;;;;;19.52;49.57;97864.09;5115508;28;20698;-72
2021/06/02 00:21:30;;;;;;;2.47;1.80;;;;;;;19.58;49.14;97863.88;5112813;28;20859;-72
2021/06/02 00:23:57;;;;;;;1.70;1.50;;;;;;;19.62;49.32;97872.28;5110252;28;20218;-72
2021/06/02 00:26:25;;;;;;;3.53;1.97;;;;;;;19.52;49.57;97864.09;5115930;28;20247;-73
2021/06/02 00:28:52;;;;;;;1.50;1.40;;;;;;;19.51;49.10;97871.38;5104756;28;20210;-72
2021/06/02 00:31:19;;;;;;;2.13;1.70;;;;;;;19.29;50.46;97862.56;5109707;28;20225;-72
2021/06/02 00:33:46;;;;;;;2.27;1.43;;;;;;;18.84;52.33;97858.66;5112217;28;20212;-74
2021/06/02 00:36:13;;;;;;;4.63;1.90;;;;;;;18.71;53.17;97859.06;5115543;28;20198;-72
2021/06/02 00:38:41;;;;;;;2.20;1.83;;;;;;;18.83;53.00;97854.31;5114124;28;20298;-73
2021/06/02 00:41:08;;;;;;;2.40;1.70;;;;;;;18.88;52.59;97855.19;5109501;28;20194;-72
2021/06/02 00:43:36;;;;;;;2.67;1.70;;;;;;;19.13;51.80;97859.97;5113437;27;20207;-73
2021/06/02 00:46:03;;;;;;;2.83;2.00;;;;;;;18.97;52.74;97859.06;5106833;28;20759;-73
2021/06/02 00:48:29;;;;;;;3.70;1.90;;;;;;;18.71;53.01;97862.59;5108529;27;20217;-72
2021/06/02 00:50:56;;;;;;;3.73;2.23;;;;;;;18.85;52.32;97863.00;5111007;28;20237;-73
2021/06/02 00:53:23;;;;;;;3.13;1.97;;;;;;;18.79;53.02;97869.44;5105814;28;20257;-72
2021/06/02 00:55:50;;;;;;;4.77;2.07;;;;;;;18.47;53.67;97866.66;5114891;28;20200;-72
2021/06/02 00:58:28;;;;;;;2.20;1.80;;;;;;;18.93;51.87;97870.63;5110184;28;20230;-72
2021/06/02 01:00:57;;;;;;;1.73;1.60;;;;;;;18.92;51.47;97864.41;5108311;28;20214;-73
2021/06/02 01:03:27;;;;;;;4.33;2.00;;;;;;;18.70;52.73;97870.97;5102927;28;20202;-72
2021/06/02 01:05:54;;;;;;;2.63;1.97;;;;;;;19.09;51.90;97861.56;5110181;28;20229;-73
2021/06/02 01:08:22;;;;;;;3.63;2.20;;;;;;;19.13;51.90;97862.69;5109969;28;20244;-73
2021/06/02 01:10:50;;;;;;;4.27;1.93;;;;;;;18.80;53.36;97862.94;5114049;28;20268;-73
2021/06/02 01:13:19;;;;;;;5.53;2.00;;;;;;;18.47;55.03;97857.72;5114686;28;20201;-72
2021/06/02 01:15:48;;;;;;;3.23;1.90;;;;;;;18.67;54.09;97864.19;5115029;27;20274;-73
2021/06/02 01:18:16;;;;;;;6.20;1.93;;;;;;;18.59;54.15;97856.50;5114650;28;20230;-72
2021/06/02 01:20:43;;;;;;;2.17;1.87;;;;;;;18.53;53.94;97865.66;5106733;28;20191;-73
2021/06/02 01:23:12;;;;;;;5.33;1.60;;;;;;;18.72;53.63;97864.22;5106719;28;20299;-72
2021/06/02 01:25:40;;;;;;;2.90;1.83;;;;;;;18.86;52.60;97864.63;5113062;28;20689;-74
2021/06/02 01:28:08;;;;;;;4.20;2.10;;;;;;;18.86;52.26;97861.91;5109522;28;20226;-72
2021/06/02 01:30:36;;;;;;;3.73;1.90;;;;;;;18.80;53.17;97874.56;5104478;28;20237;-71
2021/06/02 01:33:34;;;;;;;2.60;2.03;;;;;;;18.55;54.24;97868.91;5114286;27;20823;-71
2021/06/02 01:36:04;;;;;;;2.53;1.80;;;;;;;18.22;55.79;97865.53;5107065;28;20269;-71
2021/06/02 01:39:04;;;;;;;3.50;1.60;;;;;;;17.98;56.52;97864.16;5105783;28;20300;-71
2021/06/02 01:41:33;;;;;;;4.03;1.87;;;;;;;18.25;55.49;97859.63;5111459;28;20244;-71
2021/06/02 01:44:36;;;;;;;3.30;2.27;;;;;;;18.25;55.96;97856.94;5113901;28;20206;-72
2021/06/02 01:47:25;;;;;;;3.40;1.70;;;;;;;18.47;55.17;97866.66;5107693;28;20311;-71
2021/06/02 01:50:04;;;;;;;3.43;2.03;;;;;;;18.26;56.02;97872.88;5114151;28;20250;-71
2021/06/02 01:53:03;;;;;;;3.33;2.07;;;;;;;18.36;55.95;97861.41;5111016;27;20194;-72
2021/06/02 01:55:49;;;;;;;3.47;1.67;;;;;;;17.95;58.25;97862.78;5112060;28;20228;-73
2021/06/02 01:58:50;;;;;;;2.50;1.80;;;;;;;17.98;58.73;97859.56;5111202;28;20233;-72
2021/06/02 02:01:57;;;;;;;4.17;1.80;;;;;;;17.68;58.83;97856.47;5110181;28;20198;-72
2021/06/02 02:05:08;;;;;;;3.57;2.10;;;;;;;17.60;59.45;97856.91;5107274;28;20219;-72
2021/06/02 02:07:58;;;;;;;3.10;1.67;;;;;;;17.78;58.72;97859.31;5110947;28;20223;-72
2021/06/02 02:10:39;;;;;;;2.50;2.10;;;;;;;17.67;59.42;97857.53;5112909;28;20238;-72
2021/06/02 02:13:20;;;;;;;3.50;1.90;;;;;;;17.83;58.33;97850.47;5104645;28;20204;-73
2021/06/02 02:16:18;;;;;;;2.63;1.90;;;;;;;17.61;59.24;97850.44;5112909;27;20191;-72
2021/06/02 02:18:59;;;;;;;3.40;2.07;;;;;;;17.71;58.97;97847.06;5110648;28;20202;-72
2021/06/02 02:21:42;;;;;;;7.47;2.47;;;;;;;17.87;58.70;97851.59;5103138;28;20196;-72
2021/06/02 02:24:28;;;;;;;5.93;1.90;;;;;;;17.96;58.49;97850.91;5113215;28;20644;-72
2021/06/02 02:27:01;;;;;;;2.60;1.97;;;;;;;17.98;58.07;97853.38;5101610;28;20221;-73
2021/06/02 02:29:42;;;;;;;3.13;1.97;;;;;;;17.34;60.81;97864.84;5113377;28;20195;-72
2021/06/02 02:32:25;;;;;;;3.10;2.10;;;;;;;17.76;58.57;97869.56;5112144;27;20235;-72
2021/06/02 02:35:35;;;;;;;2.33;1.87;;;;;;;17.04;62.37;97865.19;5093936;28;20269;-72
2021/06/02 02:38:09;;;;;;;3.37;2.20;;;;;;;17.54;60.63;97873.28;5095066;28;20215;-72
2021/06/02 02:40:47;;;;;;;3.40;1.90;;;;;;;17.40;61.12;97880.06;5105051;28;20188;-72
2021/06/02 02:43:28;;;;;;;2.07;1.83;;;;;;;17.16;62.27;97874.00;5104610;28;20200;-72
2021/06/02 02:46:03;;;;;;;2.87;1.97;;;;;;;17.22;62.00;97870.31;5105043;28;20227;-72
2021/06/02 02:48:38;;;;;;;2.90;1.87;;;;;;;17.17;61.71;97874.84;5105272;28;20268;-72
2021/06/02 02:51:15;;;;;;;2.50;1.90;;;;;;;17.54;60.03;97871.41;5109470;28;20215;-72
2021/06/02 02:53:49;;;;;;;3.10;1.93;;;;;;;17.52;59.74;97878.91;5111063;28;20216;-72
2021/06/02 02:56:23;;;;;;;4.60;1.90;;;;;;;17.46;59.98;97879.09;5109356;28;20698;-72
2021/06/02 02:58:57;;;;;;;2.40;1.93;;;;;;;17.39;60.23;97886.53;5120234;27;20686;-73
2021/06/02 03:01:28;;;;;;;2.33;2.00;;;;;;;17.39;60.44;97881.16;5110320;28;20262;-72
2021/06/02 03:04:00;;;;;;;3.73;1.90;;;;;;;17.15;61.91;97882.34;5110294;28;20196;-72
2021/06/02 03:06:32;;;;;;;3.33;2.07;;;;;;;16.86;63.71;97883.47;5112781;28;20193;-72
2021/06/02 03:09:04;;;;;;;4.43;2.00;;;;;;;16.84;64.31;97882.91;5112220;28;20201;-72
2021/06/02 03:11:37;;;;;;;4.10;2.10;;;;;;;16.91;64.17;97888.94;5105370;28;20219;-72
2021/06/02 03:14:16;;;;;;;3.00;1.90;;;;;;;16.78;64.07;97887.41;5111550;28;20192;-72
2021/06/02 03:16:50;;;;;;;5.27;1.97;;;;;;;16.78;63.83;97891.97;5111924;28;20218;-72
2021/06/02 03:19:20;;;;;;;9.30;2.17;;;;;;;16.84;63.63;97901.78;5109207;28;20201;-72
2021/06/02 03:21:59;;;;;;;3.20;2.00;;;;;;;16.67;64.47;97899.03;5111424;28;20597;-72
2021/06/02 03:24:56;;;;;;;5.27;1.80;;;;;;;16.91;62.89;97897.03;5102404;28;20196;-74
2021/06/02 03:27:28;;;;;;;2.57;1.97;;;;;;;16.59;65.21;97895.91;5088254;28;20220;-71
2021/06/02 03:30:05;;;;;;;2.90;2.10;;;;;;;16.60;65.20;97893.00;5109683;28;20195;-72
2021/06/02 03:32:48;;;;;;;6.17;2.37;;;;;;;16.73;64.76;97899.97;5105024;28;20679;-74
2021/06/02 03:35:19;;;;;;;3.37;2.20;;;;;;;17.28;61.72;97898.22;5102790;28;20711;-73
2021/06/02 03:37:58;;;;;;;4.30;2.33;;;;;;;17.20;62.19;97907.53;5111282;28;20772;-71
2021/06/02 03:40:44;;;;;;;3.73;2.03;;;;;;;17.10;62.95;97901.13;5110634;28;20200;-72
2021/06/02 03:43:20;;;;;;;2.57;2.00;;;;;;;17.08;62.64;97904.06;5110126;28;20560;-73
2021/06/02 03:46:09;;;;;;;5.90;2.30;;;;;;;17.07;63.58;97904.34;5111433;28;20203;-72
2021/06/02 03:48:41;;;;;;;3.23;2.17;;;;;;;16.82;64.64;97906.59;5110243;28;20277;-72
2021/06/02 03:51:26;;;;;;;3.83;2.40;;;;;;;17.12;63.22;97904.44;5107657;28;20268;-72
2021/06/02 03:54:03;;;;;;;2.77;2.30;;;;;;;16.93;64.15;97903.81;5111294;28;20188;-72
2021/06/02 03:56:41;;;;;;;3.50;2.33;;;;;;;16.83;64.91;97914.41;5105904;28;20688;-72
2021/06/02 03:59:16;;;;;;;4.07;2.03;;;;;;;17.27;62.61;97915.47;5106526;28;20187;-74
2021/06/02 04:01:51;;;;;;;7.53;2.67;;;;;;;17.27;62.88;97918.97;5105540;28;20656;-71
2021/06/02 04:04:25;;;;;;;4.10;2.60;;;;;;;17.28;62.55;97920.59;5109045;28;20290;-72
2021/06/02 04:06:54;;;;;;;4.90;2.10;;;;;;;17.28;63.59;97917.09;5110636;28;20219;-72
2021/06/02 04:09:26;;;;;;;3.80;2.13;;;;;;;17.28;63.65;97917.09;5104211;28;20683;-72
2021/06/02 04:12:05;;;;;;;4.30;2.23;;;;;;;17.52;62.40;97927.50;5107486;28;20240;-72
2021/06/02 04:14:33;;;;;;;4.33;2.60;;;;;;;17.50;62.07;97920.69;5108011;28;20188;-73
2021/06/02 04:17:02;;;;;;;5.37;2.47;;;;;;;17.51;62.29;97912.38;5111997;28;20215;-72
2021/06/02 04:19:30;;;;;;;6.70;2.70;;;;;;;17.72;61.72;97910.75;5111589;28;20199;-72
2021/06/02 04:22:03;;;;;;;6.67;2.70;;;;;;;17.76;61.39;97910.03;5106302;28;20193;-72
2021/06/02 04:24:32;;;;;;;3.73;2.70;;;;;;;17.86;61.13;97915.59;5112582;28;20191;-78
2021/06/02 04:27:00;;;;;;;4.00;1.90;;;;;;;17.88;61.03;97916.13;5119469;27;20222;-77
2021/06/02 04:29:27;;;;;;;4.17;2.60;;;;;;;17.96;60.77;97921.13;5111638;28;20208;-77
2021/06/02 04:31:56;;;;;;;3.87;2.63;;;;;;;18.10;60.49;97918.88;5098319;28;20212;-79
2021/06/02 04:34:26;;;;;;;4.87;2.70;;;;;;;18.21;59.79;97916.06;5105501;28;20615;-77
2021/06/02 04:36:54;;;;;;;4.77;3.37;;;;;;;18.35;58.96;97924.63;5103072;28;20220;-77
2021/06/02 04:39:22;;;;;;;3.77;2.70;;;;;;;18.53;58.39;97926.97;5109699;28;20198;-75
2021/06/02 04:41:49;;;;;;;6.67;2.80;;;;;;;18.81;57.36;97934.88;5111125;28;20197;-75
2021/06/02 04:44:17;;;;;;;4.87;2.70;;;;;;;18.96;56.59;97935.03;5109290;28;20214;-75
2021/06/02 04:46:46;;;;;;;5.37;2.90;;;;;;;19.07;55.30;97934.06;5110143;28;20708;-75
2021/06/02 04:49:14;;;;;;;5.50;3.20;;;;;;;19.34;54.67;97929.44;5109876;28;20233;-75
2021/06/02 04:52:10;;;;;;;6.50;3.03;;;;;;;19.78;53.64;97936.28;5111294;28;20310;-76
2021/06/02 04:55:00;;;;;;;2.90;2.50;;;;;;;20.11;52.54;97938.69;5108726;28;20206;-76
2021/06/02 04:58:05;;;;;;;4.53;2.53;;;;;;;20.43;50.94;97940.22;5111915;28;20230;-77
2021/06/02 05:00:57;;;;;;;5.47;2.60;;;;;;;20.77;49.58;97949.53;5108842;28;20212;-75
2021/06/02 05:03:58;;;;;;;6.17;2.90;;;;;;;20.94;48.52;97955.59;5106478;27;20232;-76
2021/06/02 05:07:07;;;;;;;5.53;3.00;;;;;;;20.71;47.79;97964.16;5108268;28;20204;-76
2021/06/02 05:10:25;;;;;;;5.60;2.77;;;;;;;21.30;46.99;97961.88;5080211;28;20694;-75
2021/06/02 05:13:32;;;;;;;6.47;2.90;;;;;;;21.45;45.75;97975.47;5113127;28;20201;-75
2021/06/02 05:16:41;;;;;;;7.17;2.80;;;;;;;20.33;47.83;97969.97;5115381;28;20189;-75
2021/06/02 05:19:54;;;;;;;4.13;2.23;;;;;;;20.47;44.31;97979.25;5117935;27;20225;-82
2021/06/02 05:23:00;;;;;;;4.10;2.30;;;;;;;20.60;44.27;97976.06;5110689;28;20224;-74
2021/06/02 05:26:17;;;;;;;2.50;1.90;;;;;;;20.19;43.74;97989.66;5111784;28;20199;-74
2021/06/02 05:29:16;;;;;;;3.30;2.00;;;;;;;21.47;40.69;97984.97;5045708;28;20228;-79
2021/06/02 05:32:29;;;;;;;2.97;1.63;;;;;;;21.47;39.67;98003.16;5104623;27;20580;-80
2021/06/02 05:35:35;;;;;;;3.60;1.77;;;;;;;20.51;43.17;97985.78;5106738;28;20195;-80
2021/06/02 05:38:59;;;;;;;3.70;1.73;;;;;;;21.29;41.29;97987.41;5092096;27;20218;-77
2021/06/02 05:41:58;;;;;;;4.30;1.90;;;;;;;20.89;42.15;97996.28;5093145;27;20246;-74
2021/06/02 05:45:05;;;;;;;4.60;2.30;;;;;;;21.32;40.92;97992.28;5103989;28;20204;-74
2021/06/02 05:48:03;;;;;;;4.97;2.07;;;;;;;22.67;37.76;97993.00;5110460;28;20245;-76
2021/06/02 05:51:13;;;;;;;5.97;2.27;;;;;;;22.11;38.18;97996.13;5110784;27;20203;-76
2021/06/02 05:54:03;;;;;;;4.50;2.30;;;;;;;22.25;39.00;97991.75;5110210;28;20200;-72
2021/06/02 05:57:11;;;;;;;4.63;1.90;;;;;;;21.45;39.06;97989.03;5112357;28;20200;-72
2021/06/02 06:00:22;;;;;;;3.10;1.90;;;;;;;21.65;40.31;97981.75;5110352;27;20204;-72
2021/06/02 06:03:19;;;;;;;2.37;1.70;;;;;;;21.25;40.70;97987.13;5043882;28;20195;-73
2021/06/02 06:06:02;;;;;;;3.47;1.60;;;;;;;21.32;40.00;97984.13;5108126;28;20200;-71
2021/06/02 06:09:26;;;;;;;2.37;1.60;;;;;;;23.01;36.08;97987.66;5109234;27;20230;-72
2021/06/02 06:12:17;;;;;;;4.83;1.60;;;;;;;22.79;35.46;97989.94;5113466;28;20210;-72
2021/06/02 06:15:19;;;;;;;3.67;1.60;;;;;;;22.35;37.91;97978.13;5106568;27;20627;-73
2021/06/02 06:18:24;;;;;;;1.93;1.50;;;;;;;21.75;37.84;97980.94;5105063;28;20683;-72
2021/06/02 06:21:10;;;;;;;2.93;1.87;;;;;;;21.95;36.63;97989.06;5088685;27;20202;-71
2021/06/02 06:23:58;;;;;;;2.97;1.40;;;;;;;22.21;35.88;97987.94;5104737;28;20231;-72
2021/06/02 06:26:30;;;;;;;5.30;1.90;;;;;;;24.02;33.76;97985.88;5102009;27;20206;-74
2021/06/02 06:29:04;;;;;;;4.17;1.80;;;;;;;24.70;32.09;97990.91;5106290;28;20190;-73
2021/06/02 06:31:34;;;;;;;2.20;1.43;;;;;;;24.46;31.92;97995.50;5107325;28;20210;-73
2021/06/02 06:34:06;;;;;;;3.20;2.00;;;;;;;22.90;35.11;97992.34;5113023;27;20201;-72
2021/06/02 06:36:35;;;;;;;3.90;1.87;;;;;;;22.81;35.62;97993.22;5112161;28;20197;-72
2021/06/02 06:39:18;;;;;;;3.67;1.70;;;;;;;22.63;36.67;97991.94;5099770;28;20212;-72
2021/06/02 06:41:48;;;;;;;3.43;1.50;;;;;;;22.54;36.90;97995.50;5108067;28;20202;-71
2021/06/02 06:44:15;;;;;;;6.83;2.10;;;;;;;23.18;36.09;97990.84;5097275;28;20284;-77
2021/06/02 06:46:43;;;;;;;9.50;2.10;;;;;;;22.87;36.89;97989.38;5109525;28;20223;-79
2021/06/02 06:49:11;;;;;;;4.83;1.70;;;;;;;22.67;36.72;97994.91;5106927;28;20565;-75
2021/06/02 06:51:42;;;;;;;3.07;1.63;;;;;;;23.10;36.21;97988.72;5112564;28;20210;-74
2021/06/02 06:54:12;;;;;;;4.93;1.90;;;;;;;23.83;33.62;97991.22;5112453;28;20262;-74
2021/06/02 06:56:39;;;;;;;3.07;1.80;;;;;;;24.36;33.58;97994.78;5103982;28;20247;-75
2021/06/02 06:59:06;;;;;;;4.40;2.00;;;;;;;23.78;34.93;97993.16;5111412;28;20206;-77
2021/06/02 07:01:37;;;;;;;7.57;2.87;;;;;;;22.89;37.18;97982.56;5105445;27;20199;-73
2021/06/02 07:04:04;;;;;;;5.37;2.87;;;;;;;24.88;33.67;97989.31;5105069;28;20546;-76
2021/06/02 07:06:31;;;;;;;9.33;2.60;;;;;;;26.16;31.81;97992.28;5109127;28;20207;-71
2021/06/02 07:08:59;;;;;;;8.03;2.63;;;;;;;23.73;35.48;97980.38;5107502;28;20222;-71
2021/06/02 07:11:26;;;;;;;5.80;2.83;;;;;;;25.25;33.11;97979.28;5110829;28;20219;-71
2021/06/02 07:13:53;;;;;;;4.83;2.80;;;;;;;23.59;35.17;97984.03;5103592;28;20200;-70
2021/06/02 07:16:21;;;;;;;6.57;2.73;;;;;;;24.17;33.87;97991.19;5110259;28;20272;-71
2021/06/02 07:18:50;;;;;;;6.50;2.40;;;;;;;25.39;32.62;97976.59;5110740;28;20219;-70
2021/06/02 07:21:19;;;;;;;3.83;2.43;;;;;;;25.90;31.41;97989.13;5112454;27;20199;-70
2021/06/02 07:23:46;;;;;;;6.67;2.70;;;;;;;25.64;30.99;97989.88;5103395;27;20208;-70
2021/06/02 07:26:14;;;;;;;7.10;2.70;;;;;;;25.79;31.26;97984.16;5100271;28;20606;-71
2021/06/02 07:28:42;;;;;;;4.00;2.70;;;;;;;23.72;34.70;97988.84;5099924;28;20251;-71
2021/06/02 07:31:10;;;;;;;8.47;2.37;;;;;;;25.56;32.10;97993.28;5094128;28;20216;-71
2021/06/02 07:33:37;;;;;;;4.50;2.20;;;;;;;26.31;30.61;97994.75;5099702;28;20206;-70
2021/06/02 07:36:05;;;;;;;3.53;2.10;;;;;;;25.35;32.70;97992.78;5114129;27;20195;-70
2021/06/02 07:38:32;;;;;;;6.10;2.20;;;;;;;25.90;30.91;97996.56;5100175;27;20763;-70
2021/06/02 07:40:59;;;;;;;5.53;3.10;;;;;;;26.35;30.24;98004.78;5110032;28;20214;-70
2021/06/02 07:43:27;;;;;;;4.27;2.40;;;;;;;24.63;33.71;97992.34;5110499;28;20664;-70
2021/06/02 07:45:54;;;;;;;4.13;2.37;;;;;;;24.08;34.03;97995.63;5101458;28;20228;-70
2021/06/02 07:48:20;;;;;;;5.70;2.67;;;;;;;24.52;34.03;97988.88;5097952;28;20220;-70
2021/06/02 07:50:47;;;;;;;5.20;2.40;;;;;;;24.29;34.45;97997.88;5120492;28;20883;-72
2021/06/02 07:53:14;;;;;;;7.67;2.63;;;;;;;24.18;34.40;97992.81;5108920;27;20200;-72
2021/06/02 07:55:41;;;;;;;10.70;2.80;;;;;;;25.53;32.11;97997.41;5106380;28;20226;-69
2021/06/02 07:58:08;;;;;;;3.30;2.30;;;;;;;25.70;31.65;97999.63;5110666;28;20325;-69
2021/06/02 08:00:36;;;;;;;3.97;2.20;;;;;;;26.31;30.93;97994.75;5108520;28;20206;-74
2021/06/02 08:03:04;;;;;;;5.77;2.20;;;;;;;26.76;29.96;97996.63;5111903;28;20192;-73
2021/06/02 08:05:31;;;;;;;5.93;2.90;;;;;;;27.53;29.67;97987.28;5105472;28;20674;-70
2021/06/02 08:07:58;;;;;;;5.67;2.33;;;;;;;27.39;30.10;97990.06;5102549;28;20224;-70
2021/06/02 08:10:25;;;;;;;3.73;2.13;;;;;;;27.03;29.35;97996.59;5111370;28;20200;-69
2021/06/02 08:12:52;;;;;;;6.40;2.50;;;;;;;27.15;30.08;97992.22;5107991;28;20215;-70
2021/06/02 08:15:19;;;;;;;3.57;2.20;;;;;;;27.45;29.82;97996.22;5102955;28;20208;-72
2021/06/02 08:17:48;;;;;;;3.70;2.30;;;;;;;26.64;30.16;98005.34;5109760;28;20220;-69
2021/06/02 08:20:16;;;;;;;3.77;1.90;;;;;;;26.19;30.06;98002.66;5104787;28;20200;-71
2021/06/02 08:22:44;;;;;;;4.67;1.70;;;;;;;27.90;28.02;98000.66;5105733;28;20200;-69
2021/06/02 08:25:14;;;;;;;7.40;2.10;;;;;;;26.86;29.29;97999.16;5103089;28;20206;-72
2021/06/02 08:27:41;;;;;;;2.93;1.70;;;;;;;28.11;27.11;98010.00;5109796;28;20712;-73
2021/06/02 08:30:09;;;;;;;34.50;12.40;;;;;;;26.76;28.75;98002.91;5111442;28;20665;-71
2021/06/02 08:32:38;;;;;;;5.57;2.20;;;;;;;27.56;27.73;98003.91;5103155;28;20707;-71
2021/06/02 08:35:08;;;;;;;17.53;6.43;;;;;;;28.43;27.24;98001.50;5112917;28;20675;-71
2021/06/02 08:37:35;;;;;;;3.83;1.80;;;;;;;26.79;26.50;98015.19;5114094;28;20221;-69
2021/06/02 08:40:03;;;;;;;4.00;2.13;;;;;;;27.03;27.34;98013.03;5109164;27;20209;-71
2021/06/02 08:42:30;;;;;;;3.20;1.97;;;;;;;27.37;27.03;98016.16;5107956;28;20201;-71
2021/06/02 08:44:57;;;;;;;4.87;2.10;;;;;;;27.31;27.50;98014.66;5107435;28;20201;-71
2021/06/02 08:47:24;;;;;;;6.27;2.37;;;;;;;27.57;27.54;98011.03;5110628;28;20224;-71
2021/06/02 08:49:51;;;;;;;10.90;2.63;;;;;;;28.94;26.16;98015.44;5113753;28;20524;-70
2021/06/02 08:52:19;;;;;;;5.13;2.23;;;;;;;27.33;26.17;98020.63;5107742;28;20242;-72
2021/06/02 08:54:46;;;;;;;3.87;1.63;;;;;;;27.68;26.02;98022.56;5113791;28;20537;-71
2021/06/02 08:57:13;;;;;;;5.07;1.80;;;;;;;28.56;24.69;98025.31;5103669;28;20347;-71
2021/06/02 08:59:39;;;;;;;4.07;1.87;;;;;;;28.29;23.71;98028.19;5112819;28;20202;-71
2021/06/02 09:02:06;;;;;;;6.53;1.77;;;;;;;28.40;23.09;98032.31;5112697;28;20599;-72
2021/06/02 09:04:34;;;;;;;3.90;1.63;;;;;;;29.34;22.33;98037.06;5107042;28;20548;-71
2021/06/02 09:07:04;;;;;;;1.70;1.53;;;;;;;29.14;22.75;98029.41;5105374;28;20219;-71
2021/06/02 09:09:33;;;;;;;3.50;1.67;;;;;;;29.54;22.01;98032.91;5109325;27;20243;-71
2021/06/02 09:12:05;;;;;;;2.73;1.70;;;;;;;28.71;23.26;98038.63;5105015;28;20297;-73
2021/06/02 09:14:33;;;;;;;7.40;1.80;;;;;;;30.14;22.38;98034.56;5103754;28;20207;-76
2021/06/02 09:17:01;;;;;;;3.17;1.63;;;;;;;28.57;24.61;98024.16;5113720;28;20230;-74
2021/06/02 09:19:34;;;;;;;2.10;1.70;;;;;;;29.61;22.86;98034.06;5114214;27;20204;-71
2021/06/02 09:22:02;;;;;;;2.80;1.40;;;;;;;28.69;24.50;98021.66;5107084;28;20198;-70
2021/06/02 09:24:50;;;;;;;3.43;1.90;;;;;;;28.24;24.56;98022.84;5109869;28;20192;-71
2021/06/02 09:27:18;;;;;;;2.53;1.63;;;;;;;27.90;24.45;98020.69;5107079;28;20235;-71
2021/06/02 09:29:52;;;;;;;2.47;1.60;;;;;;;28.90;24.03;98022.69;5111962;28;20528;-72
2021/06/02 09:32:20;;;;;;;5.13;1.60;;;;;;;29.30;24.23;98029.78;5109511;28;20229;-70
2021/06/02 09:34:47;;;;;;;2.53;1.67;;;;;;;27.55;24.24;98029.72;5106658;28;20705;-71
2021/06/02 09:37:15;;;;;;;3.07;1.70;;;;;;;27.89;24.68;98032.78;5110179;28;20223;-69
2021/06/02 09:39:43;;;;;;;5.30;1.80;;;;;;;28.57;23.03;98026.91;5112152;28;20674;-69
2021/06/02 09:42:23;;;;;;;5.77;1.90;;;;;;;30.23;22.91;98035.34;5112826;28;20188;-71
2021/06/02 09:45:05;;;;;;;4.53;1.73;;;;;;;28.90;23.68;98036.44;5110895;28;20212;-71
2021/06/02 09:47:42;;;;;;;4.83;2.10;;;;;;;29.25;22.87;98029.94;5102910;28;20223;-72
2021/06/02 09:50:11;;;;;;;5.10;1.90;;;;;;;28.78;23.45;98025.25;5104470;28;20279;-71
2021/06/02 09:52:44;;;;;;;2.23;1.60;;;;;;;30.12;23.01;98023.06;5113959;27;20223;-72
2021/06/02 09:55:16;;;;;;;10.80;2.00;;;;;;;28.65;24.67;98017.91;5110723;28;20633;-72
2021/06/02 09:57:45;;;;;;;6.50;1.80;;;;;;;29.75;22.36;98033.91;5113035;28;20225;-71
2021/06/02 10:00:14;;;;;;;4.30;1.60;;;;;;;29.89;22.18;98031.81;5109790;28;20209;-71
2021/06/02 10:02:41;;;;;;;8.85;1.90;;;;;;;29.10;22.96;98027.66;5107354;28;20651;-71
2021/06/02 10:05:09;;;;;;;4.17;1.70;;;;;;;28.57;22.79;98041.47;5106173;28;20271;-72
2021/06/02 10:07:44;;;;;;;2.38;1.58;;;;;;;29.94;21.62;98034.41;5113430;28;20251;-73
2021/06/02 10:10:13;;;;;;;4.80;1.90;;;;;;;29.61;22.41;98033.25;5105607;28;20205;-72
2021/06/02 10:12:40;;;;;;;1.80;1.40;;;;;;;30.67;21.30;98036.88;5105215;28;20254;-72
2021/06/02 10:15:10;;;;;;;3.78;1.50;;;;;;;28.94;22.16;98038.22;5106308;28;20687;-73
2021/06/02 10:17:38;;;;;;;5.32;1.70;;;;;;;29.09;21.77;98035.06;5113259;28;20231;-74
2021/06/02 10:20:10;;;;;;;4.28;1.75;;;;;;;29.01;21.95;98043.28;5111808;28;20218;-77
2021/06/02 10:22:39;;;;;;;4.82;1.48;;;;;;;30.46;21.54;98045.00;5105418;28;20283;-74
2021/06/02 10:25:08;;;;;;;21.27;2.13;;;;;;;29.83;21.85;98044.91;5102089;28;20207;-79
2021/06/02 10:27:34;;;;;;;4.82;1.80;;;;;;;30.18;22.13;98038.28;5104802;28;20576;-76
2021/06/02 10:30:01;;;;;;;2.95;1.60;;;;;;;31.83;20.38;98043.22;5109206;28;20195;-71
2021/06/02 10:32:30;;;;;;;2.83;1.52;;;;;;;31.64;20.14;98044.81;5108634;28;20287;-70
2021/06/02 10:34:57;;;;;;;1.85;1.42;;;;;;;30.59;21.22;98045.94;5104658;28;20336;-71
2021/06/02 10:37:25;;;;;;;5.68;1.73;;;;;;;32.18;19.80;98039.00;5108870;28;20231;-71
2021/06/02 10:40:01;;;;;;;1.92;1.52;;;;;;;30.59;21.14;98052.28;5103898;28;20252;-71
2021/06/02 10:42:34;;;;;;;2.53;1.80;;;;;;;32.58;19.13;98053.09;5109731;28;20282;-71
2021/06/02 10:45:04;;;;;;;2.58;1.45;;;;;;;32.32;18.97;98052.56;5107044;28;20214;-71
2021/06/02 10:47:33;;;;;;;2.83;1.60;;;;;;;30.43;20.49;98064.16;5103859;28;20256;-70
2021/06/02 10:50:00;;;;;;;2.38;1.60;;;;;;;31.30;20.20;98058.81;5101811;28;20233;-71
2021/06/02 10:52:40;;;;;;;2.38;1.50;;;;;;;31.03;20.60;98046.31;5112988;28;20244;-76
2021/06/02 10:55:39;;;;;;;5.22;1.95;;;;;;;31.57;20.23;98039.03;5109169;28;20360;-74
2021/06/02 10:58:26;;;;;;;2.75;1.58;;;;;;;31.13;19.83;98042.34;5114125;27;20298;-72
2021/06/02 11:01:09;;;;;;;3.10;1.90;;;;;;;30.95;20.54;98052.66;5110580;28;20253;-72
2021/06/02 11:03:38;;;;;;;2.78;1.58;;;;;;;29.81;20.40;98047.19;5112093;28;20204;-74
2021/06/02 11:06:42;;;;;;;1.85;1.60;;;;;;;30.89;19.82;98053.16;5111978;28;20245;-72
2021/06/02 11:09:17;;;;;;;4.07;1.98;;;;;;;31.02;19.33;98054.91;5112148;28;20299;-71
2021/06/02 11:11:45;;;;;;;4.15;1.70;;;;;;;29.95;20.16;98047.03;5112305;27;20223;-72
2021/06/02 11:14:25;;;;;;;5.57;1.65;;;;;;;31.97;18.65;98043.75;5107888;27;20216;-81
2021/06/02 11:17:02;;;;;;;3.70;1.50;;;;;;;31.84;18.70;98044.03;5112730;28;20276;-78
2021/06/02 11:19:37;;;;;;;2.28;1.40;;;;;;;32.35;18.84;98046.34;5111492;28;20196;-78
2021/06/02 11:22:06;;;;;;;5.28;1.60;;;;;;;30.55;19.08;98062.34;5114349;28;20270;-78
2021/06/02 11:24:41;;;;;;;2.85;1.52;;;;;;;31.63;18.88;98041.22;5103689;28;20236;-80
2021/06/02 11:27:35;;;;;;;3.95;1.98;;;;;;;30.86;18.98;98045.56;5107837;28;20276;-74
2021/06/02 11:30:07;;;;;;;5.25;1.77;;;;;;;32.31;17.96;98037.94;5098664;28;20247;-71
2021/06/02 11:32:36;;;;;;;3.17;1.50;;;;;;;31.53;18.90;98049.91;5110211;28;20242;-74
2021/06/02 11:35:06;;;;;;;3.20;1.58;;;;;;;31.46;19.13;98044.13;5108761;27;20206;-72
2021/06/02 11:37:34;;;;;;;3.53;1.70;;;;;;;32.76;17.80;98041.50;5102782;28;20225;-71
2021/06/02 11:40:03;;;;;;;3.90;1.55;;;;;;;31.60;18.05;98052.16;5111568;28;20252;-71
2021/06/02 11:42:33;;;;;;;3.53;1.40;;;;;;;31.89;18.13;98052.13;5099422;27;20277;-72
2021/06/02 11:45:01;;;;;;;4.82;2.30;;;;;;;31.49;18.45;98045.41;5106163;28;20191;-76
2021/06/02 11:47:28;;;;;;;3.25;1.65;;;;;;;31.03;18.50;98062.84;5100145;28;20232;-72
2021/06/02 11:50:04;;;;;;;4.63;1.60;;;;;;;30.03;19.64;98058.03;5107674;28;20208;-76
2021/06/02 11:52:30;;;;;;;2.55;1.80;;;;;;;30.54;18.62;98059.91;5111953;28;20214;-73
2021/06/02 11:54:58;;;;;;;2.10;1.58;;;;;;;31.40;18.38;98062.03;5103505;28;20455;-74
2021/06/02 11:57:26;;;;;;;2.60;1.50;;;;;;;31.40;18.17;98059.25;5098735;28;20311;-74
2021/06/02 11:59:54;;;;;;;2.40;1.52;;;;;;;31.79;17.91;98072.66;5102797;28;20859;-72
2021/06/02 12:02:21;;;;;;;3.00;1.80;;;;;;;31.95;17.95;98059.88;5104352;28;20200;-72
2021/06/02 12:04:48;;;;;;;1.90;1.40;;;;;;;32.54;17.68;98055.72;5098810;28;20296;-72
2021/06/02 12:07:22;;;;;;;2.85;1.60;;;;;;;30.38;19.59;98056.06;5106561;28;20386;-72
2021/06/02 12:09:50;;;;;;;2.05;1.58;;;;;;;31.96;18.38;98050.44;5113137;28;20252;-72
2021/06/02 12:12:17;;;;;;;2.15;1.70;;;;;;;32.44;18.27;98055.38;5107880;28;20721;-72
2021/06/02 12:14:51;;;;;;;3.28;1.70;;;;;;;32.23;19.03;98051.81;5103805;28;20241;-72